| time (UTC) | temp F | wind direction | speed knots | gust knots | rain 1hr in | rain 24hr in | rain mn in | humidity % | barometer mb |
| 20260510171350 | 71 | 167 | 3.5 | 7.0 | 0.00 | 0.00 | 0.00 | 66 | 1014.0 |
| 20260510170846 | 71 | 184 | 4.3 | 6.1 | 0.00 | 0.00 | 0.00 | 65 | 1014.1 |
| 20260510170343 | 72 | 201 | 5.2 | 8.7 | 0.00 | 0.00 | 0.00 | 64 | 1014.1 |
| 20260510165838 | 71 | 210 | 0.9 | 1.7 | 0.00 | 0.00 | 0.00 | 68 | 1014.0 |
| 20260510165335 | 70 | 212 | 0.9 | 1.7 | 0.00 | 0.00 | 0.00 | 67 | 1014.0 |
| 20260510164832 | 70 | 185 | 1.7 | 2.6 | 0.00 | 0.00 | 0.00 | 69 | 1013.9 |
| 20260510164329 | 70 | 187 | 2.6 | 2.6 | 0.00 | 0.00 | 0.00 | 71 | 1014.0 |
| 20260510163829 | 70 | 165 | 3.5 | 7.0 | 0.00 | 0.00 | 0.00 | 70 | 1014.1 |
| 20260510163326 | 70 | 216 | 3.5 | 5.2 | 0.00 | 0.00 | 0.00 | 67 | 1014.2 |
| 20260510162826 | 69 | 218 | 3.5 | 4.3 | 0.00 | 0.00 | 0.00 | 70 | 1014.2 |
| 20260510162323 | 69 | 183 | 1.7 | 2.6 | 0.00 | 0.00 | 0.00 | 69 | 1014.3 |
| 20260510161819 | 69 | 250 | 1.7 | 1.7 | 0.00 | 0.00 | 0.00 | 72 | 1014.2 |
| 20260510161315 | 69 | 203 | 1.7 | 1.7 | 0.00 | 0.00 | 0.00 | 74 | 1014.2 |
| 20260510160812 | 68 | 216 | 3.5 | 4.3 | 0.00 | 0.00 | 0.00 | 75 | 1014.2 |
| 20260510160309 | 67 | 154 | 4.3 | 5.2 | 0.00 | 0.00 | 0.00 | 76 | 1014.2 |
| 20260510155808 | 67 | 199 | 6.1 | 7.8 | 0.00 | 0.00 | 0.00 | 75 | 1014.2 |
| 20260510155306 | 68 | 178 | 1.7 | 2.6 | 0.00 | 0.00 | 0.00 | 73 | 1014.4 |
| 20260510154801 | 68 | 184 | 3.5 | 6.1 | 0.00 | 0.00 | 0.00 | 75 | 1014.4 |
| 20260510154257 | 67 | 213 | 3.5 | 6.1 | 0.00 | 0.00 | 0.00 | 77 | 1014.2 |
| 20260510153752 | 68 | 184 | 3.5 | 4.3 | 0.00 | 0.00 | 0.00 | 75 | 1014.5 |
| 20260510153248 | 67 | 187 | 1.7 | 2.6 | 0.00 | 0.00 | 0.00 | 76 | 1014.5 |
| 20260510152745 | 68 | 204 | 4.3 | 5.2 | 0.00 | 0.00 | 0.00 | 76 | 1014.3 |
| 20260510152242 | 68 | 172 | 2.6 | 4.3 | 0.00 | 0.00 | 0.00 | 74 | 1014.4 |
| 20260510151738 | 67 | 183 | 4.3 | 4.3 | 0.00 | 0.00 | 0.00 | 74 | 1014.2 |
| 20260510151237 | 68 | 196 | 2.6 | 4.3 | 0.00 | 0.00 | 0.00 | 73 | 1014.4 |
| 20260510150732 | 67 | 203 | 1.7 | 1.7 | 0.00 | 0.00 | 0.00 | 73 | 1014.3 |
| 20260510150228 | 67 | 182 | 2.6 | 2.6 | 0.00 | 0.00 | 0.00 | 72 | 1014.3 |
| 20260510145724 | 66 | 188 | 1.7 | 1.7 | 0.00 | 0.00 | 0.00 | 73 | 1013.9 |
| 20260510145220 | 66 | 172 | 2.6 | 2.6 | 0.00 | 0.00 | 0.00 | 73 | 1014.2 |
| 20260510144717 | 66 | 175 | 2.6 | 2.6 | 0.00 | 0.00 | 0.00 | 75 | 1014.3 |
| 20260510144214 | 64 | 150 | 1.7 | 1.7 | 0.00 | 0.00 | 0.00 | 76 | 1013.8 |
| 20260510143708 | 64 | 101 | 2.6 | 4.3 | 0.00 | 0.00 | 0.00 | 79 | 1014.1 |
| 20260510143205 | 63 | 92 | 3.5 | 4.3 | 0.00 | 0.00 | 0.00 | 79 | 1013.9 |
| 20260510142701 | 63 | 106 | 1.7 | 1.7 | 0.00 | 0.00 | 0.00 | 79 | 1013.9 |
| 20260510142158 | 64 | 100 | 2.6 | 2.6 | 0.00 | 0.00 | 0.00 | 80 | 1014.1 |
| 20260510141655 | 63 | 122 | 2.6 | 2.6 | 0.00 | 0.00 | 0.00 | 81 | 1014.1 |
| 20260510141154 | 63 | 97 | 1.7 | 1.7 | 0.00 | 0.00 | 0.00 | 81 | 1013.9 |
| 20260510140650 | 63 | 106 | 2.6 | 2.6 | 0.00 | 0.00 | 0.00 | 81 | 1014.2 |
| 20260510140149 | 63 | 97 | 1.7 | 1.7 | 0.00 | 0.00 | 0.00 | 79 | 1014.3 |
| 20260510135644 | 62 | 126 | 1.7 | 1.7 | 0.00 | 0.00 | 0.00 | 80 | 1014.4 |
| 20260510135140 | 62 | 98 | 1.7 | 1.7 | 0.00 | 0.00 | 0.00 | 80 | 1014.2 |
| 20260510134638 | 61 | 75 | 1.7 | 1.7 | 0.00 | 0.00 | 0.00 | 81 | 1014.1 |
| 20260510134135 | 62 | 93 | 1.7 | 1.7 | 0.00 | 0.00 | 0.00 | 81 | 1014.3 |
| 20260510133631 | 61 | 90 | 0.9 | 1.7 | 0.00 | 0.00 | 0.00 | 83 | 1014.2 |
| 20260510133126 | 61 | 93 | 2.6 | 2.6 | 0.00 | 0.00 | 0.00 | 82 | 1014.2 |
| 20260510132623 | 61 | 99 | 2.6 | 2.6 | 0.00 | 0.00 | 0.00 | 82 | 1014.1 |
| 20260510132121 | 61 | 99 | 3.5 | 4.3 | 0.00 | 0.00 | 0.00 | 81 | 1014.1 |
| 20260510131618 | 61 | 96 | 2.6 | 2.6 | 0.00 | 0.00 | 0.00 | 82 | 1014.3 |
| 20260510131115 | 61 | 100 | 1.7 | 1.7 | 0.00 | 0.00 | 0.00 | 80 | 1014.4 |
| 20260510130611 | 61 | 103 | 2.6 | 2.6 | 0.00 | 0.00 | 0.00 | 79 | 1014.3 |
| 20260510130109 | 61 | 116 | 2.6 | 2.6 | 0.00 | 0.00 | 0.00 | 81 | 1014.2 |
| 20260510125605 | 61 | 88 | 1.7 | 1.7 | 0.00 | 0.00 | 0.00 | 79 | 1014.6 |
| 20260510125102 | 61 | 77 | 0.9 | 1.7 | 0.00 | 0.00 | 0.00 | 80 | 1014.5 |
| 20260510124558 | 61 | 58 | 1.7 | 1.7 | 0.00 | 0.00 | 0.00 | 80 | 1014.6 |
| 20260510124055 | 61 | 76 | 0.9 | 0.9 | 0.00 | 0.00 | 0.00 | 80 | 1014.6 |
| 20260510123550 | 61 | 123 | 0.9 | 1.7 | 0.00 | 0.00 | 0.00 | 79 | 1014.5 |
| 20260510123047 | 61 | 120 | 1.7 | 1.7 | 0.00 | 0.00 | 0.00 | 79 | 1014.4 |
| 20260510122543 | 61 | 148 | 0.9 | 0.9 | 0.00 | 0.00 | 0.00 | 80 | 1014.4 |
| 20260510122039 | 60 | 53 | 0.9 | 1.7 | 0.00 | 0.00 | 0.00 | 83 | 1014.3 |
| 20260510121536 | 59 | 72 | 0.9 | 1.7 | 0.00 | 0.00 | 0.00 | 83 | 1014.4 |
| 20260510121033 | 60 | 55 | 0.9 | 0.9 | 0.00 | 0.00 | 0.00 | 82 | 1014.2 |
| 20260510120531 | 59 | 67 | 1.7 | 1.7 | 0.00 | 0.00 | 0.00 | 83 | 1014.3 |
| 20260510120026 | 59 | 69 | 0.9 | 1.7 | 0.00 | 0.00 | 0.00 | 83 | 1014.3 |
| 20260510115523 | 59 | 33 | 0.9 | 1.7 | 0.00 | 0.00 | 0.00 | 83 | 1014.3 |
| 20260510115020 | 60 | 42 | 0.0 | 0.9 | 0.00 | 0.00 | 0.00 | 82 | 1014.2 |
| 20260510114516 | 60 | 279 | 1.7 | 1.7 | 0.00 | 0.00 | 0.00 | 81 | 1014.2 |
| 20260510114012 | 59 | 262 | 0.0 | 0.0 | 0.00 | 0.00 | 0.00 | 83 | 1014.2 |
| 20260510113508 | 59 | 259 | 0.0 | 0.0 | 0.00 | 0.00 | 0.00 | 83 | 1013.9 |
| 20260510113006 | 58 | 269 | 0.0 | 0.0 | 0.00 | 0.00 | 0.00 | 84 | 1013.8 |
| 20260510112502 | 57 | 314 | 0.9 | 0.9 | 0.00 | 0.00 | 0.00 | 85 | 1013.7 |
| 20260510111958 | 57 | 277 | 0.9 | 1.7 | 0.00 | 0.00 | 0.00 | 86 | 1013.7 |
| 20260510111454 | 57 | 255 | 0.0 | 0.0 | 0.00 | 0.00 | 0.00 | 86 | 1013.6 |
| 20260510110951 | 57 | 262 | 0.9 | 0.9 | 0.00 | 0.00 | 0.00 | 86 | 1013.5 |
| 20260510110447 | 57 | 331 | 1.7 | 1.7 | 0.00 | 0.00 | 0.00 | 87 | 1013.3 |
| 20260510105943 | 57 | 241 | 0.0 | 0.0 | 0.00 | 0.00 | 0.00 | 87 | 1013.0 |
| 20260510105439 | 56 | 233 | 0.0 | 0.0 | 0.00 | 0.00 | 0.00 | 89 | 1012.9 |
| 20260510104934 | 56 | 265 | 0.9 | 1.7 | 0.00 | 0.00 | 0.00 | 90 | 1012.9 |
| 20260510104431 | 56 | 267 | 1.7 | 1.7 | 0.00 | 0.00 | 0.00 | 90 | 1012.9 |
| 20260510103927 | 55 | 243 | 0.0 | 0.0 | 0.00 | 0.00 | 0.00 | 92 | 1012.7 |
| 20260510103425 | 55 | 267 | 0.0 | 0.0 | 0.00 | 0.00 | 0.00 | 92 | 1012.5 |
| 20260510102920 | 55 | 251 | 0.0 | 0.0 | 0.00 | 0.00 | 0.00 | 93 | 1012.1 |
| 20260510102416 | 54 | 252 | 0.0 | 0.0 | 0.00 | 0.00 | 0.00 | 93 | 1012.1 |
| 20260510101913 | 54 | 258 | 0.0 | 0.0 | 0.00 | 0.00 | 0.00 | 93 | 1012.1 |
| 20260510101411 | 53 | 246 | 0.0 | 0.0 | 0.00 | 0.00 | 0.00 | 93 | 1012.1 |
| 20260510100908 | 54 | 251 | 0.0 | 0.0 | 0.00 | 0.00 | 0.00 | 93 | 1012.1 |
| 20260510100405 | 54 | 276 | 0.0 | 0.0 | 0.00 | 0.00 | 0.00 | 93 | 1012.0 |
| 20260510095901 | 54 | 250 | 0.0 | 0.0 | 0.00 | 0.00 | 0.00 | 93 | 1011.9 |
| 20260510095356 | 54 | 250 | 0.0 | 0.0 | 0.00 | 0.00 | 0.00 | 93 | 1011.7 |
| 20260510094856 | 54 | 250 | 0.0 | 0.0 | 0.00 | 0.00 | 0.00 | 93 | 1012.1 |
| 20260510094351 | 54 | 252 | 0.0 | 0.0 | 0.00 | 0.00 | 0.00 | 92 | 1012.1 |
| 20260510093848 | 54 | 264 | 0.0 | 0.0 | 0.00 | 0.00 | 0.00 | 92 | 1012.0 |
| 20260510093343 | 55 | 261 | 0.0 | 0.0 | 0.00 | 0.00 | 0.00 | 92 | 1012.0 |
| 20260510092840 | 54 | 283 | 1.7 | 1.7 | 0.00 | 0.00 | 0.00 | 92 | 1012.0 |
| 20260510092336 | 54 | 210 | 0.0 | 0.0 | 0.00 | 0.00 | 0.00 | 92 | 1012.0 |
| 20260510091832 | 55 | 246 | 0.0 | 0.0 | 0.00 | 0.00 | 0.00 | 92 | 1012.1 |
| 20260510091329 | 55 | 255 | 0.0 | 0.0 | 0.00 | 0.00 | 0.00 | 92 | 1011.9 |
| 20260510090825 | 54 | 357 | 2.6 | 2.6 | 0.00 | 0.00 | 0.00 | 92 | 1011.8 |
| 20260510090323 | 54 | 314 | 1.7 | 1.7 | 0.00 | 0.00 | 0.00 | 93 | 1011.7 |
| 20260510085818 | 54 | 292 | 3.5 | 5.2 | 0.00 | 0.00 | 0.00 | 93 | 1011.8 |
| 20260510085318 | 54 | 265 | 2.6 | 5.2 | 0.00 | 0.00 | 0.00 | 93 | 1012.0 |
| 20260510084814 | 54 | 287 | 0.9 | 0.9 | 0.00 | 0.00 | 0.00 | 94 | 1011.8 |
| 20260510084311 | 54 | 266 | 0.9 | 1.7 | 0.00 | 0.00 | 0.00 | 94 | 1012.0 |
| 20260510083808 | 54 | 260 | 0.0 | 0.0 | 0.00 | 0.00 | 0.00 | 94 | 1011.7 |
| 20260510083305 | 54 | 264 | 0.0 | 0.0 | 0.00 | 0.00 | 0.00 | 94 | 1011.6 |
| 20260510082800 | 54 | 260 | 0.0 | 0.9 | 0.00 | 0.00 | 0.00 | 94 | 1011.6 |
| 20260510082257 | 54 | 272 | 0.0 | 0.0 | 0.00 | 0.00 | 0.00 | 94 | 1011.3 |
| 20260510081756 | 55 | 307 | 0.0 | 0.0 | 0.00 | 0.00 | 0.00 | 94 | 1011.3 |
| 20260510081252 | 55 | 290 | 0.9 | 0.9 | 0.00 | 0.00 | 0.00 | 94 | 1011.2 |
| 20260510080748 | 55 | 19 | 0.9 | 0.9 | 0.00 | 0.00 | 0.00 | 94 | 1011.3 |
| 20260510080243 | 54 | 270 | 0.9 | 1.7 | 0.00 | 0.00 | 0.00 | 94 | 1011.1 |
| 20260510075741 | 54 | 259 | 0.0 | 0.0 | 0.00 | 0.00 | 0.00 | 94 | 1011.0 |
| 20260510075238 | 54 | 258 | 0.0 | 0.0 | 0.00 | 0.00 | 0.00 | 94 | 1010.9 |
| 20260510074735 | 54 | 295 | 0.0 | 0.0 | 0.00 | 0.00 | 0.00 | 94 | 1010.8 |
| 20260510074232 | 55 | 266 | 0.0 | 0.0 | 0.00 | 0.00 | 0.00 | 93 | 1011.1 |
| 20260510073728 | 55 | 263 | 0.0 | 0.0 | 0.00 | 0.00 | 0.00 | 93 | 1011.0 |
| 20260510073224 | 55 | 263 | 0.0 | 0.0 | 0.00 | 0.00 | 0.00 | 93 | 1010.9 |
| 20260510072720 | 55 | 263 | 0.0 | 0.0 | 0.00 | 0.00 | 0.00 | 93 | 1010.8 |
| 20260510072216 | 55 | 254 | 0.0 | 0.0 | 0.00 | 0.00 | 0.00 | 93 | 1010.9 |
| 20260510071713 | 55 | 254 | 0.0 | 0.0 | 0.00 | 0.00 | 0.00 | 93 | 1010.7 |
| 20260510071210 | 55 | 258 | 0.0 | 0.0 | 0.00 | 0.00 | 0.00 | 92 | 1010.8 |
| 20260510070708 | 55 | 272 | 0.0 | 0.0 | 0.00 | 0.00 | 0.00 | 92 | 1010.8 |
| 20260510070205 | 55 | 277 | 0.0 | 0.0 | 0.00 | 0.00 | 0.00 | 92 | 1010.7 |
| 20260510065700 | 56 | 275 | 0.9 | 0.9 | 0.00 | 0.00 | 0.00 | 91 | 1010.5 |
| 20260510065156 | 56 | 265 | 0.0 | 0.9 | 0.00 | 0.00 | 0.00 | 91 | 1010.5 |
| 20260510064653 | 56 | 259 | 0.0 | 0.0 | 0.00 | 0.00 | 0.00 | 91 | 1010.4 |
| 20260510064150 | 56 | 296 | 0.0 | 0.9 | 0.00 | 0.00 | 0.00 | 91 | 1010.5 |
| 20260510063647 | 56 | 292 | 0.0 | 0.0 | 0.00 | 0.00 | 0.00 | 91 | 1010.4 |
| 20260510063144 | 56 | 235 | 0.0 | 0.0 | 0.00 | 0.00 | 0.00 | 91 | 1010.6 |
| 20260510062640 | 56 | 268 | 0.0 | 0.0 | 0.00 | 0.00 | 0.00 | 91 | 1010.5 |
| 20260510062136 | 56 | 272 | 0.9 | 0.9 | 0.00 | 0.00 | 0.00 | 91 | 1010.4 |
| 20260510061631 | 56 | 302 | 0.0 | 0.0 | 0.00 | 0.00 | 0.00 | 90 | 1010.6 |
| 20260510061129 | 57 | 276 | 0.0 | 0.0 | 0.00 | 0.00 | 0.00 | 90 | 1010.6 |
| 20260510060625 | 57 | 312 | 0.0 | 0.0 | 0.00 | 0.00 | 0.00 | 90 | 1010.7 |
| 20260510060122 | 57 | 269 | 0.0 | 0.0 | 0.00 | 0.00 | 0.00 | 90 | 1010.7 |
| 20260510055618 | 57 | 278 | 0.0 | 0.0 | 0.00 | 0.00 | 0.00 | 90 | 1010.7 |
| 20260510055116 | 57 | 262 | 0.0 | 0.0 | 0.00 | 0.00 | 0.00 | 89 | 1010.8 |
| 20260510054611 | 57 | 273 | 0.0 | 0.0 | 0.00 | 0.00 | 0.00 | 89 | 1010.9 |
| 20260510054107 | 57 | 300 | 0.0 | 0.0 | 0.00 | 0.00 | 0.00 | 89 | 1010.7 |
| 20260510053606 | 58 | 271 | 0.9 | 0.9 | 0.00 | 0.00 | 0.00 | 89 | 1010.5 |
| 20260510053103 | 58 | 278 | 0.9 | 0.9 | 0.00 | 0.00 | 0.00 | 88 | 1010.7 |
| 20260510052559 | 58 | 261 | 0.0 | 0.0 | 0.00 | 0.00 | 0.00 | 88 | 1010.9 |
| 20260510052056 | 58 | 342 | 0.0 | 0.0 | 0.00 | 0.00 | 0.00 | 88 | 1010.7 |
| 20260510051551 | 58 | 261 | 0.0 | 0.0 | 0.00 | 0.00 | 0.00 | 87 | 1010.8 |
| 20260510051048 | 59 | 306 | 0.0 | 0.9 | 0.00 | 0.00 | 0.00 | 87 | 1010.7 |
| 20260510050546 | 59 | 1 | 0.9 | 0.9 | 0.00 | 0.00 | 0.00 | 87 | 1010.7 |
| 20260510050043 | 59 | 254 | 0.0 | 0.0 | 0.00 | 0.00 | 0.00 | 87 | 1010.7 |
| 20260510045540 | 59 | 268 | 0.0 | 0.0 | 0.00 | 0.00 | 0.00 | 87 | 1010.8 |
| 20260510045035 | 59 | 22 | 0.0 | 0.0 | 0.00 | 0.00 | 0.00 | 87 | 1011.1 |
| 20260510044532 | 59 | 347 | 0.9 | 0.9 | 0.00 | 0.00 | 0.00 | 86 | 1011.0 |
| 20260510044030 | 59 | 30 | 1.7 | 1.7 | 0.00 | 0.00 | 0.00 | 86 | 1011.1 |
| 20260510043525 | 59 | 359 | 0.9 | 1.7 | 0.00 | 0.00 | 0.00 | 86 | 1010.8 |
| 20260510043021 | 59 | 1 | 1.7 | 1.7 | 0.00 | 0.00 | 0.00 | 86 | 1011.0 |
| 20260510042515 | 59 | 17 | 1.7 | 1.7 | 0.00 | 0.00 | 0.00 | 86 | 1010.8 |
| 20260510042010 | 59 | 321 | 0.0 | 0.0 | 0.00 | 0.00 | 0.00 | 86 | 1010.8 |
| 20260510041508 | 59 | 353 | 2.6 | 2.6 | 0.00 | 0.00 | 0.00 | 85 | 1010.9 |
| 20260510041005 | 59 | 286 | 0.0 | 0.0 | 0.00 | 0.00 | 0.00 | 85 | 1010.8 |
| 20260510040501 | 59 | 3 | 1.7 | 1.7 | 0.00 | 0.00 | 0.00 | 84 | 1010.9 |
| 20260510035957 | 60 | 1 | 1.7 | 1.7 | 0.00 | 0.00 | 0.00 | 84 | 1010.9 |
| 20260510035454 | 60 | 3 | 0.9 | 0.9 | 0.00 | 0.00 | 0.00 | 84 | 1011.1 |
| 20260510034953 | 60 | 343 | 0.0 | 0.0 | 0.00 | 0.00 | 0.00 | 83 | 1010.9 |
| 20260510034453 | 60 | 346 | 0.9 | 1.7 | 0.00 | 0.00 | 0.00 | 83 | 1010.8 |
| 20260510033948 | 61 | 342 | 0.0 | 0.0 | 0.00 | 0.00 | 0.00 | 82 | 1010.9 |
| 20260510033444 | 61 | 55 | 2.6 | 2.6 | 0.00 | 0.00 | 0.00 | 81 | 1010.8 |
| 20260510032942 | 61 | 62 | 1.7 | 2.6 | 0.00 | 0.00 | 0.00 | 81 | 1010.8 |
| 20260510032439 | 61 | 11 | 1.7 | 2.6 | 0.00 | 0.00 | 0.00 | 81 | 1010.6 |
| 20260510031939 | 61 | 31 | 1.7 | 2.6 | 0.00 | 0.00 | 0.00 | 81 | 1010.8 |
| 20260510031435 | 61 | 61 | 2.6 | 2.6 | 0.00 | 0.00 | 0.00 | 80 | 1010.7 |
| 20260510030930 | 62 | 79 | 1.7 | 2.6 | 0.00 | 0.00 | 0.00 | 79 | 1010.7 |
| 20260510030426 | 62 | 83 | 5.2 | 6.1 | 0.00 | 0.00 | 0.00 | 78 | 1010.8 |
| 20260510025924 | 62 | 87 | 2.6 | 2.6 | 0.00 | 0.00 | 0.00 | 80 | 1010.9 |
| 20260510025421 | 62 | 78 | 4.3 | 5.2 | 0.00 | 0.00 | 0.00 | 78 | 1010.6 |
| 20260510024918 | 62 | 87 | 4.3 | 6.1 | 0.00 | 0.00 | 0.00 | 79 | 1010.5 |
| 20260510024415 | 62 | 99 | 4.3 | 5.2 | 0.00 | 0.00 | 0.00 | 79 | 1010.7 |
| 20260510023911 | 62 | 85 | 6.1 | 6.1 | 0.00 | 0.00 | 0.00 | 80 | 1010.6 |
| 20260510023407 | 62 | 78 | 4.3 | 5.2 | 0.00 | 0.00 | 0.00 | 80 | 1010.6 |
| 20260510022904 | 62 | 87 | 4.3 | 5.2 | 0.00 | 0.00 | 0.00 | 80 | 1010.6 |
| 20260510022403 | 62 | 82 | 4.3 | 5.2 | 0.00 | 0.00 | 0.00 | 77 | 1010.5 |
| 20260510021902 | 62 | 69 | 4.3 | 5.2 | 0.00 | 0.00 | 0.00 | 78 | 1010.6 |
| 20260510021401 | 62 | 78 | 5.2 | 6.1 | 0.00 | 0.00 | 0.00 | 78 | 1010.7 |
| 20260510020857 | 62 | 83 | 7.8 | 7.8 | 0.00 | 0.00 | 0.00 | 78 | 1010.7 |
| 20260510020352 | 62 | 86 | 5.2 | 6.1 | 0.00 | 0.00 | 0.00 | 81 | 1010.5 |
| 20260510015848 | 62 | 102 | 6.1 | 6.1 | 0.00 | 0.00 | 0.00 | 77 | 1010.5 |
| 20260510015344 | 63 | 98 | 5.2 | 6.1 | 0.00 | 0.00 | 0.00 | 79 | 1010.3 |
| 20260510014839 | 63 | 96 | 6.1 | 7.0 | 0.00 | 0.00 | 0.00 | 79 | 1010.2 |
| 20260510014337 | 62 | 98 | 6.1 | 7.0 | 0.00 | 0.00 | 0.00 | 76 | 1010.5 |
| 20260510013833 | 63 | 99 | 6.1 | 6.1 | 0.00 | 0.00 | 0.00 | 77 | 1010.4 |
| 20260510013328 | 63 | 99 | 6.1 | 7.0 | 0.00 | 0.00 | 0.00 | 79 | 1010.4 |
| 20260510012824 | 63 | 121 | 6.1 | 7.0 | 0.00 | 0.00 | 0.00 | 77 | 1010.3 |
| 20260510012323 | 63 | 107 | 7.0 | 7.8 | 0.00 | 0.00 | 0.00 | 77 | 1010.1 |
| 20260510011818 | 63 | 136 | 6.1 | 7.0 | 0.00 | 0.00 | 0.00 | 78 | 1010.3 |
| 20260510011314 | 63 | 122 | 4.3 | 6.1 | 0.00 | 0.00 | 0.00 | 78 | 1010.4 |
| 20260510010811 | 63 | 98 | 6.1 | 7.8 | 0.00 | 0.00 | 0.00 | 80 | 1010.1 |
| 20260510010308 | 63 | 69 | 2.6 | 2.6 | 0.00 | 0.00 | 0.00 | 81 | 1010.0 |
| 20260510005805 | 63 | 75 | 6.1 | 7.0 | 0.00 | 0.00 | 0.00 | 79 | 1010.0 |
| 20260510005300 | 63 | 43 | 3.5 | 4.3 | 0.00 | 0.00 | 0.00 | 78 | 1010.0 |
| 20260510004759 | 63 | 65 | 2.6 | 2.6 | 0.00 | 0.00 | 0.00 | 77 | 1010.1 |
| 20260510004256 | 63 | 54 | 2.6 | 4.3 | 0.00 | 0.00 | 0.00 | 77 | 1010.1 |
| 20260510003753 | 64 | 52 | 4.3 | 5.2 | 0.00 | 0.00 | 0.00 | 76 | 1009.8 |
| 20260510003250 | 64 | 69 | 4.3 | 5.2 | 0.00 | 0.00 | 0.00 | 77 | 1009.7 |
| 20260510002748 | 64 | 70 | 2.6 | 4.3 | 0.00 | 0.00 | 0.00 | 77 | 1009.7 |
| 20260510002246 | 64 | 57 | 5.2 | 6.1 | 0.00 | 0.00 | 0.00 | 77 | 1009.6 |
| 20260510001743 | 64 | 81 | 3.5 | 5.2 | 0.00 | 0.00 | 0.00 | 79 | 1009.8 |
| 20260510001241 | 64 | 75 | 7.0 | 7.8 | 0.00 | 0.00 | 0.00 | 79 | 1009.8 |
| 20260510000737 | 64 | 83 | 6.1 | 7.0 | 0.00 | 0.00 | 0.00 | 79 | 1009.9 |
| 20260510000234 | 64 | 84 | 7.0 | 7.8 | 0.00 | 0.00 | 0.00 | 79 | 1009.8 |
| 20260509235731 | 64 | 79 | 6.1 | 7.8 | 0.00 | 0.00 | 0.00 | 79 | 1009.6 |
| 20260509235227 | 64 | 73 | 5.2 | 6.1 | 0.00 | 0.00 | 0.00 | 79 | 1009.7 |
| 20260509234723 | 65 | 84 | 7.8 | 7.8 | 0.00 | 0.00 | 0.00 | 76 | 1009.6 |
| 20260509234221 | 65 | 77 | 4.3 | 6.1 | 0.00 | 0.00 | 0.00 | 76 | 1009.5 |
| 20260509233719 | 65 | 84 | 2.6 | 4.3 | 0.00 | 0.00 | 0.00 | 80 | 1009.5 |
| 20260509233216 | 65 | 76 | 5.2 | 6.1 | 0.00 | 0.00 | 0.00 | 80 | 1009.4 |
| 20260509232712 | 65 | 92 | 5.2 | 6.1 | 0.00 | 0.00 | 0.00 | 80 | 1009.3 |
| 20260509232209 | 65 | 101 | 6.1 | 7.0 | 0.00 | 0.00 | 0.00 | 80 | 1009.3 |
| 20260509231706 | 65 | 101 | 4.3 | 5.2 | 0.00 | 0.00 | 0.00 | 79 | 1009.2 |
| 20260509231203 | 66 | 98 | 4.3 | 5.2 | 0.00 | 0.00 | 0.00 | 77 | 1009.3 |
| 20260509230701 | 66 | 115 | 4.3 | 5.2 | 0.00 | 0.00 | 0.00 | 79 | 1009.1 |
| 20260509230157 | 66 | 102 | 3.5 | 4.3 | 0.00 | 0.00 | 0.00 | 80 | 1009.2 |
| 20260509225653 | 66 | 103 | 2.6 | 2.6 | 0.00 | 0.00 | 0.00 | 80 | 1009.2 |
| 20260509225148 | 66 | 113 | 2.6 | 2.6 | 0.00 | 0.00 | 0.00 | 78 | 1009.1 |
| 20260509224644 | 66 | 120 | 2.6 | 2.6 | 0.00 | 0.00 | 0.00 | 79 | 1009.3 |
| 20260509224141 | 66 | 127 | 2.6 | 2.6 | 0.00 | 0.00 | 0.00 | 77 | 1009.4 |
| 20260509223638 | 66 | 103 | 2.6 | 2.6 | 0.00 | 0.00 | 0.00 | 76 | 1009.4 |
| 20260509223135 | 66 | 97 | 3.5 | 4.3 | 0.00 | 0.00 | 0.00 | 76 | 1009.3 |
| 20260509222632 | 66 | 141 | 2.6 | 2.6 | 0.00 | 0.00 | 0.00 | 75 | 1009.3 |
| 20260509222127 | 66 | 109 | 2.6 | 2.6 | 0.00 | 0.00 | 0.00 | 74 | 1009.2 |
| 20260509221624 | 66 | 109 | 1.7 | 1.7 | 0.00 | 0.00 | 0.00 | 76 | 1009.4 |
| 20260509221120 | 66 | 95 | 2.6 | 2.6 | 0.00 | 0.00 | 0.00 | 73 | 1009.3 |
| 20260509220616 | 66 | 116 | 2.6 | 2.6 | 0.00 | 0.00 | 0.00 | 70 | 1009.4 |
| 20260509220112 | 66 | 105 | 3.5 | 4.3 | 0.00 | 0.00 | 0.00 | 69 | 1009.6 |
| 20260509215608 | 66 | 122 | 0.9 | 1.7 | 0.00 | 0.00 | 0.00 | 69 | 1009.5 |
| 20260509215105 | 66 | 111 | 1.7 | 1.7 | 0.00 | 0.00 | 0.00 | 71 | 1009.5 |
| 20260509214602 | 66 | 202 | 0.9 | 0.9 | 0.00 | 0.00 | 0.00 | 68 | 1009.7 |
| 20260509214058 | 66 | 161 | 0.0 | 0.9 | 0.00 | 0.00 | 0.00 | 70 | 1009.5 |
| 20260509213555 | 66 | 120 | 1.7 | 1.7 | 0.00 | 0.00 | 0.00 | 69 | 1009.5 |
| 20260509213052 | 66 | 106 | 1.7 | 1.7 | 0.00 | 0.00 | 0.00 | 72 | 1009.5 |
| 20260509212549 | 65 | 83 | 1.7 | 1.7 | 0.00 | 0.00 | 0.00 | 71 | 1009.6 |
| 20260509212046 | 65 | 91 | 2.6 | 2.6 | 0.00 | 0.00 | 0.00 | 71 | 1009.7 |
| 20260509211541 | 65 | 100 | 2.6 | 2.6 | 0.00 | 0.00 | 0.00 | 72 | 1009.6 |
| 20260509211038 | 65 | 120 | 3.5 | 4.3 | 0.00 | 0.00 | 0.00 | 71 | 1009.5 |
| 20260509210535 | 65 | 95 | 3.5 | 4.3 | 0.00 | 0.00 | 0.00 | 72 | 1009.4 |
| 20260509210032 | 65 | 103 | 3.5 | 5.2 | 0.00 | 0.00 | 0.00 | 73 | 1009.6 |
| 20260509205532 | 65 | 105 | 3.5 | 4.3 | 0.00 | 0.00 | 0.00 | 71 | 1009.4 |
| 20260509205027 | 65 | 110 | 2.6 | 4.3 | 0.00 | 0.00 | 0.00 | 71 | 1009.4 |
| 20260509204524 | 65 | 105 | 2.6 | 2.6 | 0.00 | 0.00 | 0.00 | 74 | 1009.4 |
| 20260509204020 | 65 | 91 | 2.6 | 2.6 | 0.00 | 0.00 | 0.00 | 73 | 1009.5 |
| 20260509203516 | 65 | 93 | 3.5 | 4.3 | 0.00 | 0.00 | 0.00 | 73 | 1009.5 |
| 20260509203015 | 65 | 96 | 3.5 | 4.3 | 0.00 | 0.00 | 0.00 | 70 | 1009.5 |
| 20260509202515 | 65 | 95 | 2.6 | 2.6 | 0.00 | 0.00 | 0.00 | 72 | 1009.5 |
| 20260509202010 | 65 | 100 | 3.5 | 4.3 | 0.00 | 0.00 | 0.00 | 69 | 1009.5 |
| 20260509201506 | 65 | 96 | 2.6 | 2.6 | 0.00 | 0.00 | 0.00 | 73 | 1009.7 |
| 20260509201003 | 65 | 101 | 4.3 | 5.2 | 0.00 | 0.00 | 0.00 | 69 | 1009.7 |
| 20260509200458 | 65 | 121 | 4.3 | 5.2 | 0.00 | 0.00 | 0.00 | 72 | 1009.8 |
| 20260509195954 | 66 | 101 | 2.6 | 2.6 | 0.00 | 0.00 | 0.00 | 68 | 1009.9 |
| 20260509195450 | 66 | 92 | 2.6 | 2.6 | 0.00 | 0.00 | 0.00 | 67 | 1009.8 |
| 20260509194949 | 66 | 203 | 1.7 | 1.7 | 0.00 | 0.00 | 0.00 | 65 | 1010.1 |
| 20260509194445 | 65 | 121 | 2.6 | 2.6 | 0.00 | 0.00 | 0.00 | 67 | 1009.9 |
| 20260509193943 | 65 | 101 | 2.6 | 2.6 | 0.00 | 0.00 | 0.00 | 69 | 1010.1 |
| 20260509193442 | 65 | 170 | 2.6 | 2.6 | 0.00 | 0.00 | 0.00 | 68 | 1010.0 |
| 20260509192938 | 65 | 195 | 1.7 | 2.6 | 0.00 | 0.00 | 0.00 | 70 | 1010.3 |
| 20260509192435 | 65 | 127 | 1.7 | 1.7 | 0.00 | 0.00 | 0.00 | 69 | 1010.3 |
| 20260509191930 | 64 | 152 | 3.5 | 4.3 | 0.00 | 0.00 | 0.00 | 71 | 1010.2 |
| 20260509191426 | 65 | 154 | 3.5 | 4.3 | 0.00 | 0.00 | 0.00 | 69 | 1010.4 |
| 20260509190922 | 65 | 192 | 1.7 | 1.7 | 0.00 | 0.00 | 0.00 | 72 | 1010.3 |
| 20260509190419 | 66 | 106 | 1.7 | 1.7 | 0.00 | 0.00 | 0.00 | 69 | 1010.4 |
| 20260509185917 | 66 | 96 | 0.0 | 0.0 | 0.00 | 0.00 | 0.00 | 69 | 1010.3 |
| 20260509185414 | 65 | 52 | 0.9 | 1.7 | 0.00 | 0.00 | 0.00 | 70 | 1010.3 |
| 20260509184911 | 65 | 54 | 1.7 | 1.7 | 0.00 | 0.00 | 0.00 | 70 | 1010.4 |
| 20260509184408 | 65 | 73 | 1.7 | 1.7 | 0.00 | 0.00 | 0.00 | 70 | 1010.3 |
| 20260509183905 | 65 | 70 | 2.6 | 4.3 | 0.00 | 0.00 | 0.00 | 71 | 1010.5 |
| 20260509183359 | 65 | 69 | 1.7 | 1.7 | 0.00 | 0.00 | 0.00 | 70 | 1010.7 |
| 20260509182855 | 65 | 52 | 1.7 | 1.7 | 0.00 | 0.00 | 0.00 | 70 | 1010.7 |
| 20260509182352 | 65 | 167 | 0.9 | 0.9 | 0.00 | 0.00 | 0.00 | 69 | 1010.8 |
| 20260509181850 | 65 | 237 | 0.0 | 0.0 | 0.00 | 0.00 | 0.00 | 69 | 1011.2 |
| 20260509181347 | 65 | 54 | 0.9 | 0.9 | 0.00 | 0.00 | 0.00 | 68 | 1011.0 |
| 20260509180845 | 65 | 313 | 0.9 | 0.9 | 0.00 | 0.00 | 0.00 | 66 | 1011.1 |
| 20260509180340 | 64 | 261 | 0.0 | 0.0 | 0.00 | 0.00 | 0.00 | 67 | 1011.1 |
| 20260509175837 | 64 | 172 | 0.0 | 0.0 | 0.00 | 0.00 | 0.00 | 68 | 1011.1 |
| 20260509175333 | 64 | 183 | 0.0 | 0.9 | 0.00 | 0.00 | 0.00 | 67 | 1011.1 |
| 20260509174829 | 64 | 179 | 0.0 | 0.9 | 0.00 | 0.00 | 0.00 | 66 | 1011.1 |
| 20260509174325 | 64 | 256 | 0.0 | 0.0 | 0.00 | 0.00 | 0.00 | 66 | 1011.2 |
| 20260509173821 | 64 | 114 | 0.0 | 0.0 | 0.00 | 0.00 | 0.00 | 69 | 1011.2 |
| 20260509173317 | 64 | 114 | 0.0 | 0.9 | 0.00 | 0.00 | 0.00 | 68 | 1011.2 |
| 20260509172814 | 64 | 114 | 0.9 | 0.9 | 0.00 | 0.00 | 0.00 | 68 | 1011.2 |
| 20260509172310 | 64 | 112 | 0.9 | 0.9 | 0.00 | 0.00 | 0.00 | 70 | 1011.4 |
| 20260509171806 | 64 | 62 | 0.9 | 0.9 | 0.00 | 0.00 | 0.00 | 68 | 1011.4 |